Waterloo, IA

4:54 AM CST on November 22, 2014 (GMT -0600)
Waterloo Municipal | Change Station
CLOSE
Current Station
Airport
Location: Waterloo,
Elevation: 873 ft
Nearby Weather Stations
Active Advisory: Freezing Rain Advisory Active Notice: Record Report

Elev 873 ft 42.55 °N, 92.40 °W | Updated 1 hour ago

Overcast
Overcast
34 °F
Feels Like 28 °F
N
7
Wind Variable Wind from South

Today
High -- | Low -- °F
--% Chance of Precip.
Yesterday
High -- | Low -- °F
Precip. -- in
7:09 AM 4:41 PM
Waning Crescent, 0% visible
Pressure 29.98 in
Visibility 5.0 miles
Clouds Overcast 700 ft
Windchill 28 °F
Dew Point 32 °F
Humidity 92%
Rainfall 0.00 in
Snow Depth Not available.
UV 0 out of 12
Pollen .10 out of 12
Air Quality Not available.
Flu Activity Not available.
METAR KALO 220954Z 17006KT 5SM BR OVC007 01/00 A2995 RMK AO2 SLP152 T00110000

More Conditions Fewer Conditions

Pressure 29.98 in
Visibility 5.0 miles
Clouds Overcast 700 ft
Windchill 28 °F
Dew Point 32 °F
Humidity 92%
Rainfall 0.00 in
Snow Depth Not available.
UV 0 out of 12
Pollen .10 out of 12
Air Quality Not available.
Flu Activity Not available.
METAR KALO 220954Z 17006KT 5SM BR OVC007 01/00 A2995 RMK AO2 SLP152 T00110000

More Conditions Fewer Conditions

10-Day Weather Forecast

Almanac

Astronomy

Nov. 22, 2014 Rise Set
Actual Time
Civil Twilight
Nautical Twilight
Astronomical Twilight
Moon
Length of Visible Light
Length of Day
Tomorrow will be .
, % of the Moon is Illuminated

Today's Extremes

State Highs State Lows

Community

WunderPhotos

Upload Photos

1,772,805 photos uploaded!

WunderBlogs® & News

Nearby

Air Quality

  Air Quality AQ Index Pollutant
Not available.

Snow Depth

Station Depth Elevation

Earthquake Activity

City Distance Mag. Time & Date
Minimum magnitude displayed is 2.5.

Coastal Water Temperatures

Place Temperature

Nearby Weather Stations